sensor_id;sensor_type;location;lat;lon;timestamp;pressure;altitude;pressure_sealevel;temperature;humidity
11672;BME280;5892;43.412;24.612;2023-02-04T00:01:34;99771.75;;;3.63;100.00
11672;BME280;5892;43.412;24.612;2023-02-04T00:04:02;99767.41;;;3.62;100.00
11672;BME280;5892;43.412;24.612;2023-02-04T00:06:30;99755.78;;;3.56;100.00
11672;BME280;5892;43.412;24.612;2023-02-04T00:08:57;99732.03;;;3.43;100.00
11672;BME280;5892;43.412;24.612;2023-02-04T00:11:25;99706.38;;;3.25;100.00
11672;BME280;5892;43.412;24.612;2023-02-04T00:13:52;99746.84;;;3.66;100.00
11672;BME280;5892;43.412;24.612;2023-02-04T00:16:21;99746.81;;;3.71;100.00
11672;BME280;5892;43.412;24.612;2023-02-04T00:18:48;99698.69;;;3.48;100.00
11672;BME280;5892;43.412;24.612;2023-02-04T00:21:15;99738.09;;;3.74;100.00
11672;BME280;5892;43.412;24.612;2023-02-04T00:23:42;99704.63;;;3.55;100.00
11672;BME280;5892;43.412;24.612;2023-02-04T00:26:09;99726.69;;;3.77;100.00
11672;BME280;5892;43.412;24.612;2023-02-04T00:28:37;99723.19;;;3.81;100.00
11672;BME280;5892;43.412;24.612;2023-02-04T00:31:05;99710.75;;;3.75;100.00
11672;BME280;5892;43.412;24.612;2023-02-04T00:33:35;99705.88;;;3.72;100.00
11672;BME280;5892;43.412;24.612;2023-02-04T00:36:03;99685.34;;;3.66;100.00
11672;BME280;5892;43.412;24.612;2023-02-04T00:38:32;99634.06;;;3.26;100.00
11672;BME280;5892;43.412;24.612;2023-02-04T00:40:59;99669.44;;;3.50;100.00
11672;BME280;5892;43.412;24.612;2023-02-04T00:43:26;99652.63;;;3.53;100.00
11672;BME280;5892;43.412;24.612;2023-02-04T00:45:54;99671.56;;;3.58;100.00
11672;BME280;5892;43.412;24.612;2023-02-04T00:48:20;99663.25;;;3.44;100.00
11672;BME280;5892;43.412;24.612;2023-02-04T00:50:49;99659.69;;;3.49;100.00
11672;BME280;5892;43.412;24.612;2023-02-04T00:53:17;99652.69;;;3.42;100.00
11672;BME280;5892;43.412;24.612;2023-02-04T00:55:44;99647.50;;;3.46;100.00
11672;BME280;5892;43.412;24.612;2023-02-04T00:58:11;99629.31;;;3.52;100.00
11672;BME280;5892;43.412;24.612;2023-02-04T01:00:38;99649.03;;;3.62;100.00
11672;BME280;5892;43.412;24.612;2023-02-04T01:03:05;99634.13;;;3.65;100.00
11672;BME280;5892;43.412;24.612;2023-02-04T01:05:32;99628.94;;;3.68;100.00
11672;BME280;5892;43.412;24.612;2023-02-04T01:08:00;99595.94;;;3.61;100.00
11672;BME280;5892;43.412;24.612;2023-02-04T01:10:27;99608.59;;;3.76;100.00
11672;BME280;5892;43.412;24.612;2023-02-04T01:12:54;99606.06;;;3.84;100.00
11672;BME280;5892;43.412;24.612;2023-02-04T01:15:21;99595.50;;;3.83;100.00
11672;BME280;5892;43.412;24.612;2023-02-04T01:17:48;99601.22;;;3.81;100.00
11672;BME280;5892;43.412;24.612;2023-02-04T01:20:15;99596.84;;;3.86;100.00
11672;BME280;5892;43.412;24.612;2023-02-04T01:22:42;99579.53;;;3.81;100.00
11672;BME280;5892;43.412;24.612;2023-02-04T01:25:10;99587.09;;;3.84;100.00
11672;BME280;5892;43.412;24.612;2023-02-04T01:27:38;99591.94;;;3.88;100.00
11672;BME280;5892;43.412;24.612;2023-02-04T01:30:06;99591.63;;;3.94;100.00
11672;BME280;5892;43.412;24.612;2023-02-04T01:32:33;99588.59;;;4.01;100.00
11672;BME280;5892;43.412;24.612;2023-02-04T01:34:59;99578.28;;;4.03;100.00
11672;BME280;5892;43.412;24.612;2023-02-04T01:37:26;99576.97;;;3.95;100.00
11672;BME280;5892;43.412;24.612;2023-02-04T01:39:53;99522.28;;;3.59;100.00
11672;BME280;5892;43.412;24.612;2023-02-04T01:42:22;99574.13;;;4.10;100.00
11672;BME280;5892;43.412;24.612;2023-02-04T01:44:49;99561.34;;;4.16;100.00
11672;BME280;5892;43.412;24.612;2023-02-04T01:47:16;99568.31;;;4.22;100.00
11672;BME280;5892;43.412;24.612;2023-02-04T01:49:45;99557.59;;;4.12;100.00
11672;BME280;5892;43.412;24.612;2023-02-04T01:52:13;99555.19;;;4.34;100.00
11672;BME280;5892;43.412;24.612;2023-02-04T01:54:40;99568.69;;;4.39;100.00
11672;BME280;5892;43.412;24.612;2023-02-04T01:57:13;99552.91;;;4.17;100.00
11672;BME280;5892;43.412;24.612;2023-02-04T01:59:44;99561.66;;;4.38;100.00
11672;BME280;5892;43.412;24.612;2023-02-04T02:02:40;99554.00;;;4.40;100.00
11672;BME280;5892;43.412;24.612;2023-02-04T02:05:10;99553.91;;;4.50;100.00
11672;BME280;5892;43.412;24.612;2023-02-04T02:07:37;99552.47;;;4.34;100.00
11672;BME280;5892;43.412;24.612;2023-02-04T02:10:06;99543.75;;;4.37;100.00
11672;BME280;5892;43.412;24.612;2023-02-04T02:12:34;99539.97;;;4.38;100.00
11672;BME280;5892;43.412;24.612;2023-02-04T02:15:03;99474.56;;;4.16;100.00
11672;BME280;5892;43.412;24.612;2023-02-04T02:17:30;99521.41;;;4.45;100.00
11672;BME280;5892;43.412;24.612;2023-02-04T02:19:58;99524.59;;;4.52;100.00
11672;BME280;5892;43.412;24.612;2023-02-04T02:22:27;99526.56;;;4.47;100.00
11672;BME280;5892;43.412;24.612;2023-02-04T02:24:56;99525.19;;;4.49;100.00
11672;BME280;5892;43.412;24.612;2023-02-04T02:27:23;99516.59;;;4.61;100.00
11672;BME280;5892;43.412;24.612;2023-02-04T02:29:50;99515.41;;;4.48;100.00
11672;BME280;5892;43.412;24.612;2023-02-04T02:32:18;99523.44;;;4.58;100.00
11672;BME280;5892;43.412;24.612;2023-02-04T02:34:46;99523.16;;;4.60;100.00
11672;BME280;5892;43.412;24.612;2023-02-04T02:37:13;99525.88;;;4.60;100.00
11672;BME280;5892;43.412;24.612;2023-02-04T02:39:41;99492.38;;;4.46;100.00
11672;BME280;5892;43.412;24.612;2023-02-04T02:42:12;99441.56;;;4.09;100.00
11672;BME280;5892;43.412;24.612;2023-02-04T02:44:40;99493.13;;;4.51;100.00
11672;BME280;5892;43.412;24.612;2023-02-04T02:47:11;99531.97;;;4.71;100.00
11672;BME280;5892;43.412;24.612;2023-02-04T02:49:39;99529.19;;;4.76;100.00
11672;BME280;5892;43.412;24.612;2023-02-04T02:52:09;99521.91;;;4.71;100.00
11672;BME280;5892;43.412;24.612;2023-02-04T02:54:37;99507.91;;;4.64;100.00
11672;BME280;5892;43.412;24.612;2023-02-04T02:57:10;99488.72;;;4.55;100.00
11672;BME280;5892;43.412;24.612;2023-02-04T02:59:39;99489.03;;;4.54;100.00
11672;BME280;5892;43.412;24.612;2023-02-04T03:02:07;99475.16;;;4.55;100.00
11672;BME280;5892;43.412;24.612;2023-02-04T03:04:39;99486.00;;;4.55;100.00
11672;BME280;5892;43.412;24.612;2023-02-04T03:07:07;99475.28;;;4.45;100.00
11672;BME280;5892;43.412;24.612;2023-02-04T03:09:35;99460.19;;;4.39;100.00
11672;BME280;5892;43.412;24.612;2023-02-04T03:12:03;99460.03;;;4.31;100.00
11672;BME280;5892;43.412;24.612;2023-02-04T03:14:31;99459.69;;;4.37;100.00
11672;BME280;5892;43.412;24.612;2023-02-04T03:17:01;99442.44;;;4.28;100.00
11672;BME280;5892;43.412;24.612;2023-02-04T03:19:30;99325.16;;;3.51;100.00
11672;BME280;5892;43.412;24.612;2023-02-04T03:21:58;99455.47;;;4.26;100.00
11672;BME280;5892;43.412;24.612;2023-02-04T03:24:26;99458.25;;;4.21;100.00
11672;BME280;5892;43.412;24.612;2023-02-04T03:26:53;99452.19;;;4.29;100.00
11672;BME280;5892;43.412;24.612;2023-02-04T03:29:20;99450.03;;;4.26;100.00
11672;BME280;5892;43.412;24.612;2023-02-04T03:31:46;99450.69;;;4.18;100.00
11672;BME280;5892;43.412;24.612;2023-02-04T03:34:15;99437.41;;;4.16;100.00
11672;BME280;5892;43.412;24.612;2023-02-04T03:36:42;99455.94;;;4.33;100.00
11672;BME280;5892;43.412;24.612;2023-02-04T03:39:09;99450.44;;;4.38;100.00
11672;BME280;5892;43.412;24.612;2023-02-04T03:41:38;99448.97;;;4.46;100.00
11672;BME280;5892;43.412;24.612;2023-02-04T03:44:05;99433.50;;;4.46;100.00
11672;BME280;5892;43.412;24.612;2023-02-04T03:46:32;99270.72;;;3.29;100.00
11672;BME280;5892;43.412;24.612;2023-02-04T03:48:59;99421.19;;;4.35;100.00
11672;BME280;5892;43.412;24.612;2023-02-04T03:51:27;99440.84;;;4.46;100.00
11672;BME280;5892;43.412;24.612;2023-02-04T03:53:54;99392.88;;;4.22;100.00
11672;BME280;5892;43.412;24.612;2023-02-04T03:56:21;99372.53;;;3.77;100.00
11672;BME280;5892;43.412;24.612;2023-02-04T03:58:48;99420.50;;;4.24;100.00
11672;BME280;5892;43.412;24.612;2023-02-04T04:01:15;99322.53;;;3.70;100.00
11672;BME280;5892;43.412;24.612;2023-02-04T04:03:42;99412.50;;;4.14;100.00
11672;BME280;5892;43.412;24.612;2023-02-04T04:06:10;99393.06;;;4.07;100.00
11672;BME280;5892;43.412;24.612;2023-02-04T04:08:38;99392.22;;;4.12;100.00
11672;BME280;5892;43.412;24.612;2023-02-04T04:11:05;99398.78;;;4.06;100.00
11672;BME280;5892;43.412;24.612;2023-02-04T04:13:32;99401.84;;;3.99;100.00
11672;BME280;5892;43.412;24.612;2023-02-04T04:15:59;99402.09;;;4.03;100.00
11672;BME280;5892;43.412;24.612;2023-02-04T04:18:28;99382.69;;;3.91;100.00
11672;BME280;5892;43.412;24.612;2023-02-04T04:20:54;99406.22;;;3.95;100.00
11672;BME280;5892;43.412;24.612;2023-02-04T04:23:21;99351.56;;;3.64;100.00
11672;BME280;5892;43.412;24.612;2023-02-04T04:25:49;99406.44;;;3.99;100.00
11672;BME280;5892;43.412;24.612;2023-02-04T04:28:17;99400.47;;;4.02;100.00
11672;BME280;5892;43.412;24.612;2023-02-04T04:30:44;99404.47;;;4.04;100.00
11672;BME280;5892;43.412;24.612;2023-02-04T04:33:11;99401.97;;;4.13;100.00
11672;BME280;5892;43.412;24.612;2023-02-04T04:35:38;99391.47;;;4.25;100.00
11672;BME280;5892;43.412;24.612;2023-02-04T04:38:05;99368.56;;;4.17;100.00
11672;BME280;5892;43.412;24.612;2023-02-04T04:40:32;99397.16;;;4.47;100.00
11672;BME280;5892;43.412;24.612;2023-02-04T04:43:00;99403.84;;;4.55;100.00
11672;BME280;5892;43.412;24.612;2023-02-04T04:45:27;99395.78;;;4.50;100.00
11672;BME280;5892;43.412;24.612;2023-02-04T04:47:54;99407.28;;;4.60;100.00
11672;BME280;5892;43.412;24.612;2023-02-04T04:50:21;99408.31;;;4.64;100.00
11672;BME280;5892;43.412;24.612;2023-02-04T04:52:48;99410.97;;;4.69;100.00
11672;BME280;5892;43.412;24.612;2023-02-04T04:55:15;99414.69;;;4.74;100.00
11672;BME280;5892;43.412;24.612;2023-02-04T04:57:42;99417.94;;;4.76;100.00
11672;BME280;5892;43.412;24.612;2023-02-04T05:00:15;99401.00;;;4.65;100.00
11672;BME280;5892;43.412;24.612;2023-02-04T05:02:44;99408.31;;;4.64;100.00
11672;BME280;5892;43.412;24.612;2023-02-04T05:05:11;99405.28;;;4.66;100.00
11672;BME280;5892;43.412;24.612;2023-02-04T05:07:38;99430.69;;;4.75;100.00
11672;BME280;5892;43.412;24.612;2023-02-04T05:10:06;99427.09;;;4.80;100.00
11672;BME280;5892;43.412;24.612;2023-02-04T05:12:33;99425.25;;;4.75;100.00
11672;BME280;5892;43.412;24.612;2023-02-04T05:15:00;99428.41;;;4.82;100.00
11672;BME280;5892;43.412;24.612;2023-02-04T05:17:28;99412.78;;;4.74;100.00
11672;BME280;5892;43.412;24.612;2023-02-04T05:19:55;99432.72;;;4.83;100.00
11672;BME280;5892;43.412;24.612;2023-02-04T05:22:22;99429.94;;;4.88;100.00
11672;BME280;5892;43.412;24.612;2023-02-04T05:24:51;99420.19;;;4.68;100.00
11672;BME280;5892;43.412;24.612;2023-02-04T05:27:18;99434.13;;;4.81;100.00
11672;BME280;5892;43.412;24.612;2023-02-04T05:29:45;99409.94;;;4.65;100.00
11672;BME280;5892;43.412;24.612;2023-02-04T05:32:11;99432.06;;;4.73;100.00
11672;BME280;5892;43.412;24.612;2023-02-04T05:34:40;99435.38;;;4.88;100.00
11672;BME280;5892;43.412;24.612;2023-02-04T05:37:07;99447.84;;;4.89;100.00
11672;BME280;5892;43.412;24.612;2023-02-04T05:39:34;99412.84;;;4.69;100.00
11672;BME280;5892;43.412;24.612;2023-02-04T05:42:01;99455.47;;;4.87;100.00
11672;BME280;5892;43.412;24.612;2023-02-04T05:44:28;99442.13;;;4.91;100.00
11672;BME280;5892;43.412;24.612;2023-02-04T05:46:55;99439.41;;;4.91;100.00
11672;BME280;5892;43.412;24.612;2023-02-04T05:49:22;99442.41;;;4.89;100.00
11672;BME280;5892;43.412;24.612;2023-02-04T05:51:50;99444.59;;;4.87;100.00
11672;BME280;5892;43.412;24.612;2023-02-04T05:54:17;99457.00;;;5.12;100.00
11672;BME280;5892;43.412;24.612;2023-02-04T05:56:45;99451.59;;;5.12;100.00
11672;BME280;5892;43.412;24.612;2023-02-04T05:59:12;99426.94;;;4.90;100.00
11672;BME280;5892;43.412;24.612;2023-02-04T06:01:39;99461.03;;;5.15;100.00
11672;BME280;5892;43.412;24.612;2023-02-04T06:04:06;99458.25;;;5.20;100.00
11672;BME280;5892;43.412;24.612;2023-02-04T06:06:33;99461.47;;;5.22;100.00
11672;BME280;5892;43.412;24.612;2023-02-04T06:09:02;99446.72;;;5.09;100.00
11672;BME280;5892;43.412;24.612;2023-02-04T06:11:29;99463.09;;;5.23;100.00
11672;BME280;5892;43.412;24.612;2023-02-04T06:13:56;99461.03;;;5.15;100.00
11672;BME280;5892;43.412;24.612;2023-02-04T06:16:23;99455.31;;;5.16;100.00
11672;BME280;5892;43.412;24.612;2023-02-04T06:18:49;99464.03;;;5.13;100.00
11672;BME280;5892;43.412;24.612;2023-02-04T06:21:16;99451.25;;;5.13;100.00
11672;BME280;5892;43.412;24.612;2023-02-04T06:23:43;99423.63;;;4.93;100.00
11672;BME280;5892;43.412;24.612;2023-02-04T06:26:12;99456.94;;;5.17;100.00
11672;BME280;5892;43.412;24.612;2023-02-04T06:28:39;99459.03;;;5.20;100.00
11672;BME280;5892;43.412;24.612;2023-02-04T06:31:05;99423.34;;;4.94;100.00
11672;BME280;5892;43.412;24.612;2023-02-04T06:33:34;99453.03;;;5.23;100.00
11672;BME280;5892;43.412;24.612;2023-02-04T06:36:01;99461.75;;;5.20;100.00
11672;BME280;5892;43.412;24.612;2023-02-04T06:38:28;99480.50;;;5.22;100.00
11672;BME280;5892;43.412;24.612;2023-02-04T06:40:55;99466.53;;;5.28;100.00
11672;BME280;5892;43.412;24.612;2023-02-04T06:43:24;99444.81;;;5.28;100.00
11672;BME280;5892;43.412;24.612;2023-02-04T06:45:52;99433.66;;;5.11;100.00
11672;BME280;5892;43.412;24.612;2023-02-04T06:48:19;99453.88;;;5.37;100.00
11672;BME280;5892;43.412;24.612;2023-02-04T06:50:46;99452.25;;;5.36;100.00
11672;BME280;5892;43.412;24.612;2023-02-04T06:53:14;99478.53;;;5.41;100.00
11672;BME280;5892;43.412;24.612;2023-02-04T06:55:41;99465.09;;;5.49;100.00
11672;BME280;5892;43.412;24.612;2023-02-04T06:58:07;99463.97;;;5.50;100.00
11672;BME280;5892;43.412;24.612;2023-02-04T07:00:37;99469.41;;;5.50;100.00
11672;BME280;5892;43.412;24.612;2023-02-04T07:03:04;99461.69;;;5.58;100.00
11672;BME280;5892;43.412;24.612;2023-02-04T07:05:31;99463.22;;;5.64;100.00
11672;BME280;5892;43.412;24.612;2023-02-04T07:07:59;99464.16;;;5.73;100.00
11672;BME280;5892;43.412;24.612;2023-02-04T07:10:26;99460.13;;;5.70;100.00
11672;BME280;5892;43.412;24.612;2023-02-04T07:12:53;99462.22;;;5.73;100.00
11672;BME280;5892;43.412;24.612;2023-02-04T07:15:20;99451.78;;;5.80;100.00
11672;BME280;5892;43.412;24.612;2023-02-04T07:17:48;99462.00;;;5.88;100.00
11672;BME280;5892;43.412;24.612;2023-02-04T07:20:16;99449.19;;;5.89;100.00
11672;BME280;5892;43.412;24.612;2023-02-04T07:22:42;99458.50;;;6.02;100.00
11672;BME280;5892;43.412;24.612;2023-02-04T07:25:09;99428.31;;;5.84;100.00
11672;BME280;5892;43.412;24.612;2023-02-04T07:27:39;99455.44;;;6.03;100.00
11672;BME280;5892;43.412;24.612;2023-02-04T07:30:07;99447.00;;;6.05;100.00
11672;BME280;5892;43.412;24.612;2023-02-04T07:32:43;99440.56;;;6.14;100.00
11672;BME280;5892;43.412;24.612;2023-02-04T07:35:11;99455.66;;;6.34;100.00
11672;BME280;5892;43.412;24.612;2023-02-04T07:37:38;99456.75;;;6.47;100.00
11672;BME280;5892;43.412;24.612;2023-02-04T07:40:06;99452.72;;;6.58;100.00
11672;BME280;5892;43.412;24.612;2023-02-04T07:42:33;99452.94;;;6.48;100.00
11672;BME280;5892;43.412;24.612;2023-02-04T07:45:00;99441.13;;;6.38;100.00
11672;BME280;5892;43.412;24.612;2023-02-04T07:47:27;99446.59;;;6.52;100.00
11672;BME280;5892;43.412;24.612;2023-02-04T07:49:53;99450.63;;;6.41;100.00
11672;BME280;5892;43.412;24.612;2023-02-04T07:52:23;99445.19;;;6.41;100.00
11672;BME280;5892;43.412;24.612;2023-02-04T07:54:50;99444.88;;;6.43;100.00
11672;BME280;5892;43.412;24.612;2023-02-04T07:57:18;99450.41;;;6.51;100.00
11672;BME280;5892;43.412;24.612;2023-02-04T07:59:45;99450.22;;;6.48;100.00
11672;BME280;5892;43.412;24.612;2023-02-04T08:02:12;99459.38;;;6.52;100.00
11672;BME280;5892;43.412;24.612;2023-02-04T08:04:39;99453.22;;;6.46;100.00
11672;BME280;5892;43.412;24.612;2023-02-04T08:07:06;99458.75;;;6.55;100.00
11672;BME280;5892;43.412;24.612;2023-02-04T08:09:34;99454.53;;;6.62;100.00
11672;BME280;5892;43.412;24.612;2023-02-04T08:12:01;99466.34;;;6.58;100.00
11672;BME280;5892;43.412;24.612;2023-02-04T08:14:29;99458.94;;;6.72;100.00
11672;BME280;5892;43.412;24.612;2023-02-04T08:16:56;99464.16;;;6.82;100.00
11672;BME280;5892;43.412;24.612;2023-02-04T08:19:23;99459.00;;;6.80;100.00
11672;BME280;5892;43.412;24.612;2023-02-04T08:21:50;99428.59;;;6.65;100.00
11672;BME280;5892;43.412;24.612;2023-02-04T08:24:17;99456.56;;;7.06;100.00
11672;BME280;5892;43.412;24.612;2023-02-04T08:26:45;99459.56;;;7.05;100.00
11672;BME280;5892;43.412;24.612;2023-02-04T08:29:12;99452.31;;;7.00;100.00
11672;BME280;5892;43.412;24.612;2023-02-04T08:31:39;99461.44;;;6.96;100.00
11672;BME280;5892;43.412;24.612;2023-02-04T08:34:06;99460.50;;;7.22;100.00
11672;BME280;5892;43.412;24.612;2023-02-04T08:36:33;99448.13;;;7.39;100.00
11672;BME280;5892;43.412;24.612;2023-02-04T08:39:00;99424.34;;;7.31;100.00
11672;BME280;5892;43.412;24.612;2023-02-04T08:41:27;99467.19;;;7.61;100.00
11672;BME280;5892;43.412;24.612;2023-02-04T08:43:55;99453.81;;;7.73;100.00
11672;BME280;5892;43.412;24.612;2023-02-04T08:46:23;99463.41;;;7.71;100.00
11672;BME280;5892;43.412;24.612;2023-02-04T08:48:50;99457.81;;;7.76;100.00
11672;BME280;5892;43.412;24.612;2023-02-04T08:51:19;99466.13;;;7.71;100.00
11672;BME280;5892;43.412;24.612;2023-02-04T08:53:46;99409.53;;;7.45;100.00
11672;BME280;5892;43.412;24.612;2023-02-04T08:56:14;99427.31;;;7.43;100.00
11672;BME280;5892;43.412;24.612;2023-02-04T08:58:45;99466.09;;;7.62;100.00
11672;BME280;5892;43.412;24.612;2023-02-04T09:01:18;99465.03;;;7.72;100.00
11672;BME280;5892;43.412;24.612;2023-02-04T09:03:47;99474.25;;;7.62;100.00
11672;BME280;5892;43.412;24.612;2023-02-04T09:06:14;99468.19;;;7.65;100.00
11672;BME280;5892;43.412;24.612;2023-02-04T09:08:41;99481.06;;;7.73;100.00
11672;BME280;5892;43.412;24.612;2023-02-04T09:11:08;99468.03;;;7.70;100.00
11672;BME280;5892;43.412;24.612;2023-02-04T09:13:37;99462.84;;;7.60;100.00
11672;BME280;5892;43.412;24.612;2023-02-04T09:16:04;99460.09;;;7.82;100.00
11672;BME280;5892;43.412;24.612;2023-02-04T09:18:34;99462.88;;;7.91;100.00
11672;BME280;5892;43.412;24.612;2023-02-04T09:21:00;99461.94;;;7.95;100.00
11672;BME280;5892;43.412;24.612;2023-02-04T09:23:27;99360.56;;;7.32;100.00
11672;BME280;5892;43.412;24.612;2023-02-04T09:25:54;99474.19;;;8.06;100.00
11672;BME280;5892;43.412;24.612;2023-02-04T09:28:21;99452.28;;;7.89;100.00
11672;BME280;5892;43.412;24.612;2023-02-04T09:30:48;99470.31;;;8.30;100.00
11672;BME280;5892;43.412;24.612;2023-02-04T09:33:15;99373.63;;;7.74;99.62
11672;BME280;5892;43.412;24.612;2023-02-04T09:35:44;99460.28;;;8.56;99.93
11672;BME280;5892;43.412;24.612;2023-02-04T09:38:11;99475.56;;;8.74;99.48
11672;BME280;5892;43.412;24.612;2023-02-04T09:40:41;99467.22;;;8.71;99.60
11672;BME280;5892;43.412;24.612;2023-02-04T09:43:12;99457.88;;;8.63;99.46
11672;BME280;5892;43.412;24.612;2023-02-04T09:45:40;99464.13;;;8.55;98.85
11672;BME280;5892;43.412;24.612;2023-02-04T09:48:10;99456.72;;;8.47;99.21
11672;BME280;5892;43.412;24.612;2023-02-04T09:50:39;99447.91;;;8.59;99.86
11672;BME280;5892;43.412;24.612;2023-02-04T09:53:12;99457.59;;;8.25;96.79
11672;BME280;5892;43.412;24.612;2023-02-04T09:55:43;99426.63;;;8.30;96.97
11672;BME280;5892;43.412;24.612;2023-02-04T09:58:14;99428.44;;;8.43;96.19
11672;BME280;5892;43.412;24.612;2023-02-04T10:00:42;99448.19;;;8.40;94.80
11672;BME280;5892;43.412;24.612;2023-02-04T10:03:19;99452.34;;;8.37;94.56
11672;BME280;5892;43.412;24.612;2023-02-04T10:05:47;99447.06;;;8.41;94.17
11672;BME280;5892;43.412;24.612;2023-02-04T10:08:18;99419.66;;;8.15;94.79
11672;BME280;5892;43.412;24.612;2023-02-04T10:10:47;99444.34;;;8.49;94.66
11672;BME280;5892;43.412;24.612;2023-02-04T10:13:17;99442.56;;;8.36;93.80
11672;BME280;5892;43.412;24.612;2023-02-04T10:15:46;99440.19;;;8.52;93.53
11672;BME280;5892;43.412;24.612;2023-02-04T10:18:21;99429.28;;;8.61;93.66
11672;BME280;5892;43.412;24.612;2023-02-04T10:20:51;99438.28;;;8.61;95.22
11672;BME280;5892;43.412;24.612;2023-02-04T10:23:23;99431.00;;;8.48;94.31
11672;BME280;5892;43.412;24.612;2023-02-04T10:25:50;99437.47;;;8.61;94.97
11672;BME280;5892;43.412;24.612;2023-02-04T10:28:16;99434.91;;;8.64;94.38
11672;BME280;5892;43.412;24.612;2023-02-04T10:30:45;99372.25;;;8.42;92.40
11672;BME280;5892;43.412;24.612;2023-02-04T10:33:14;99421.78;;;8.83;92.44
11672;BME280;5892;43.412;24.612;2023-02-04T10:35:45;99419.66;;;8.72;90.95
11672;BME280;5892;43.412;24.612;2023-02-04T10:38:15;99412.94;;;8.78;92.84
11672;BME280;5892;43.412;24.612;2023-02-04T10:40:44;99420.94;;;8.74;91.13
11672;BME280;5892;43.412;24.612;2023-02-04T10:43:14;99413.88;;;8.90;92.36
11672;BME280;5892;43.412;24.612;2023-02-04T10:45:44;99416.47;;;8.87;91.38
11672;BME280;5892;43.412;24.612;2023-02-04T10:48:16;99419.69;;;8.98;90.90
11672;BME280;5892;43.412;24.612;2023-02-04T10:50:43;99399.09;;;8.74;90.88
11672;BME280;5892;43.412;24.612;2023-02-04T10:53:13;99398.78;;;8.93;91.43
11672;BME280;5892;43.412;24.612;2023-02-04T10:56:00;99402.16;;;8.99;90.52
11672;BME280;5892;43.412;24.612;2023-02-04T10:58:29;99377.72;;;8.76;91.67
11672;BME280;5892;43.412;24.612;2023-02-04T11:00:58;99398.47;;;8.95;92.40
11672;BME280;5892;43.412;24.612;2023-02-04T11:03:26;99403.94;;;8.95;93.18
11672;BME280;5892;43.412;24.612;2023-02-04T11:05:56;99404.09;;;8.98;93.88
11672;BME280;5892;43.412;24.612;2023-02-04T11:08:24;99407.63;;;8.99;93.82
11672;BME280;5892;43.412;24.612;2023-02-04T11:10:55;99387.72;;;8.89;92.90
11672;BME280;5892;43.412;24.612;2023-02-04T11:13:26;99411.78;;;8.96;93.36
11672;BME280;5892;43.412;24.612;2023-02-04T11:16:06;99417.72;;;8.81;93.93
11672;BME280;5892;43.412;24.612;2023-02-04T11:18:43;99418.69;;;8.68;94.60
11672;BME280;5892;43.412;24.612;2023-02-04T11:21:22;99354.34;;;8.27;94.84
11672;BME280;5892;43.412;24.612;2023-02-04T11:23:50;99370.72;;;8.27;95.81
11672;BME280;5892;43.412;24.612;2023-02-04T11:26:34;99414.91;;;8.38;96.24
11672;BME280;5892;43.412;24.612;2023-02-04T11:29:24;99408.53;;;8.51;96.92
11672;BME280;5892;43.412;24.612;2023-02-04T11:32:00;99408.22;;;8.53;97.85
11672;BME280;5892;43.412;24.612;2023-02-04T11:34:47;99373.13;;;8.29;97.94
11672;BME280;5892;43.412;24.612;2023-02-04T11:37:28;99402.75;;;8.44;98.06
11672;BME280;5892;43.412;24.612;2023-02-04T11:40:00;99397.63;;;8.51;98.46
11672;BME280;5892;43.412;24.612;2023-02-04T11:42:31;99399.56;;;8.59;98.78
11672;BME280;5892;43.412;24.612;2023-02-04T11:45:13;99372.25;;;8.50;97.75
11672;BME280;5892;43.412;24.612;2023-02-04T11:47:41;99392.03;;;8.73;96.74
11672;BME280;5892;43.412;24.612;2023-02-04T11:50:22;99397.50;;;8.73;95.40
11672;BME280;5892;43.412;24.612;2023-02-04T11:52:55;99384.66;;;8.82;95.10
11672;BME280;5892;43.412;24.612;2023-02-04T11:55:23;99391.84;;;8.96;95.06
11672;BME280;5892;43.412;24.612;2023-02-04T11:57:51;99392.34;;;8.98;94.03
11672;BME280;5892;43.412;24.612;2023-02-04T12:00:23;99385.75;;;8.81;93.39
11672;BME280;5892;43.412;24.612;2023-02-04T12:02:55;99397.66;;;8.85;94.52
11672;BME280;5892;43.412;24.612;2023-02-04T12:05:34;99357.00;;;8.58;94.02
11672;BME280;5892;43.412;24.612;2023-02-04T12:08:09;99380.78;;;8.75;95.14
11672;BME280;5892;43.412;24.612;2023-02-04T12:10:37;99379.19;;;8.74;95.87
11672;BME280;5892;43.412;24.612;2023-02-04T12:13:12;99372.41;;;8.71;95.44
11672;BME280;5892;43.412;24.612;2023-02-04T12:15:53;99379.97;;;8.74;94.89
11672;BME280;5892;43.412;24.612;2023-02-04T12:18:20;99373.38;;;8.75;94.72
11672;BME280;5892;43.412;24.612;2023-02-04T12:20:46;99377.88;;;8.80;94.24
11672;BME280;5892;43.412;24.612;2023-02-04T12:23:13;99378.88;;;8.84;94.74
11672;BME280;5892;43.412;24.612;2023-02-04T12:25:40;99358.78;;;8.63;94.04
11672;BME280;5892;43.412;24.612;2023-02-04T12:28:07;99373.06;;;8.68;94.32
11672;BME280;5892;43.412;24.612;2023-02-04T12:30:34;99381.75;;;8.70;95.10
11672;BME280;5892;43.412;24.612;2023-02-04T12:33:03;99382.19;;;8.55;96.16
11672;BME280;5892;43.412;24.612;2023-02-04T12:35:29;99392.16;;;8.51;96.14
11672;BME280;5892;43.412;24.612;2023-02-04T12:37:56;99363.16;;;8.16;96.99
11672;BME280;5892;43.412;24.612;2023-02-04T12:40:23;99391.50;;;8.37;96.60
11672;BME280;5892;43.412;24.612;2023-02-04T12:42:50;99396.31;;;8.31;98.07
11672;BME280;5892;43.412;24.612;2023-02-04T12:45:18;99398.81;;;8.19;97.30
11672;BME280;5892;43.412;24.612;2023-02-04T12:47:45;99398.50;;;8.21;97.66
11672;BME280;5892;43.412;24.612;2023-02-04T12:50:16;99403.31;;;8.24;97.27
11672;BME280;5892;43.412;24.612;2023-02-04T12:52:48;99362.66;;;8.05;95.84
11672;BME280;5892;43.412;24.612;2023-02-04T12:55:15;99367.31;;;8.22;95.42
11672;BME280;5892;43.412;24.612;2023-02-04T12:57:44;99406.94;;;8.41;94.92
11672;BME280;5892;43.412;24.612;2023-02-04T13:00:12;99387.91;;;8.28;95.15
11672;BME280;5892;43.412;24.612;2023-02-04T13:02:40;99398.09;;;8.44;95.54
11672;BME280;5892;43.412;24.612;2023-02-04T13:05:07;99392.47;;;8.41;94.75
11672;BME280;5892;43.412;24.612;2023-02-04T13:07:36;99383.47;;;8.32;94.50
11672;BME280;5892;43.412;24.612;2023-02-04T13:10:06;99382.81;;;8.35;95.37